Time;durP1;ratioP1;P1;durP2;ratioP2;P2;SDS_P1;SDS_P2;PMS_P1;PMS_P2;Temp;Humidity;BMP_temperature;BMP_pressure;BME280_temperature;BME280_humidity;BME280_pressure;Samples;Min_cycle;Max_cycle;Signal;HPM_P1;HPM_P2
2021/07/13 00:01:36;;;;;;;;;6.00;6.00;;;;;21.54;60.33;100534.31;5079244;27;45405;-49
2021/07/13 00:04:02;;;;;;;;;5.00;5.00;;;;;21.56;60.04;100531.50;5079358;27;45558;-52
2021/07/13 00:06:27;;;;;;;;;6.00;6.00;;;;;21.57;59.97;100530.53;5079104;27;46937;-51
2021/07/13 00:08:53;;;;;;;;;5.00;5.00;;;;;21.54;59.79;100528.06;5079316;27;45295;-50
2021/07/13 00:11:19;;;;;;;;;7.00;6.00;;;;;21.53;60.39;100527.19;5079673;28;45403;-48
2021/07/13 00:13:45;;;;;;;;;8.33;6.33;;;;;21.55;60.40;100521.69;5061005;28;45318;-47
2021/07/13 00:16:12;;;;;;;;;6.67;6.33;;;;;21.52;60.39;100521.91;5060845;28;48376;-48
2021/07/13 00:18:38;;;;;;;;;6.00;6.00;;;;;21.51;60.14;100515.66;5060859;28;45459;-52
2021/07/13 00:21:06;;;;;;;;;6.00;6.00;;;;;21.50;59.80;100511.22;5061225;27;45358;-48
2021/07/13 00:23:33;;;;;;;;;9.67;9.00;;;;;21.50;59.73;100508.53;5061811;28;45669;-51
2021/07/13 00:25:59;;;;;;;;;6.33;6.33;;;;;21.49;60.43;100506.78;5079031;27;47354;-49
2021/07/13 00:28:24;;;;;;;;;7.67;6.67;;;;;21.49;60.24;100506.78;5079069;27;45322;-50
2021/07/13 00:30:50;;;;;;;;;8.00;8.00;;;;;21.49;60.50;100504.09;5077883;27;45319;-49
2021/07/13 00:33:15;;;;;;;;;9.50;9.00;;;;;21.48;60.32;100507.78;5079262;27;45456;-48
2021/07/13 00:35:41;;;;;;;;;6.67;6.67;;;;;21.45;60.39;100505.25;5059024;27;47212;-49
2021/07/13 00:38:06;;;;;;;;;9.00;8.67;;;;;21.43;60.57;100502.66;5062666;28;45663;-51
2021/07/13 00:40:32;;;;;;;;;10.67;9.67;;;;;21.44;60.08;100500.84;5079044;27;45452;-49
2021/07/13 00:42:57;;;;;;;;;12.50;10.75;;;;;21.41;60.19;100507.31;5078947;27;45508;-51
2021/07/13 00:45:23;;;;;;;;;8.33;8.33;;;;;21.37;59.74;100497.72;5076890;27;48131;-52
2021/07/13 00:47:51;;;;;;;;;11.50;9.75;;;;;21.36;60.42;100474.41;5078867;27;45524;-50
2021/07/13 00:50:19;;;;;;;;;12.50;12.50;;;;;21.36;60.04;100473.53;5060703;28;45457;-51
2021/07/13 00:52:45;;;;;;;;;9.50;9.00;;;;;21.35;60.00;100461.00;5060489;28;45621;-51
2021/07/13 00:55:12;;;;;;;;;11.00;11.00;;;;;21.33;60.25;100469.19;5078247;27;47405;-51
2021/07/13 00:57:38;;;;;;;;;11.00;11.00;;;;;21.30;60.20;100469.41;5057265;28;45879;-49
2021/07/13 01:00:07;;;;;;;;;11.75;11.75;;;;;21.29;60.27;100475.78;5056902;27;45405;-52
2021/07/13 01:02:33;;;;;;;;;13.00;13.00;;;;;21.29;60.30;100475.78;5079017;27;45377;-50
2021/07/13 01:05:01;;;;;;;;;15.00;14.50;;;;;21.27;60.53;100474.16;5060254;28;47492;-48
2021/07/13 01:07:42;;;;;;;;;12.00;12.00;;;;;21.23;60.32;100483.44;5078443;28;45587;-50
2021/07/13 01:10:27;;;;;;;;;14.00;14.00;;;;;21.22;60.87;100474.47;5078512;27;45330;-51
2021/07/13 01:13:05;;;;;;;;;14.50;13.25;;;;;21.19;60.51;100458.47;5078619;27;45341;-49
2021/07/13 01:15:36;;;;;;;;;16.50;16.50;;;;;21.18;60.76;100456.75;5059970;28;48025;-50
2021/07/13 01:18:12;;;;;;;;;15.75;13.25;;;;;21.19;60.72;100453.06;5078581;28;45828;-50
2021/07/13 01:20:55;;;;;;;;;14.75;14.75;;;;;21.20;61.13;100462.91;5078181;27;45401;-49
2021/07/13 01:23:39;;;;;;;;;20.00;19.50;;;;;21.22;60.74;100468.22;5074147;27;45592;-49
2021/07/13 01:26:08;;;;;;;;;19.25;16.75;;;;;21.21;60.75;100474.56;5078193;27;47304;-49
2021/07/13 01:28:46;;;;;;;;;17.50;16.50;;;;;21.20;60.35;100462.03;5078316;27;45464;-48
2021/07/13 01:31:16;;;;;;;;;18.50;17.75;;;;;21.20;60.90;100456.63;5055199;28;45679;-51
2021/07/13 01:33:50;;;;;;;;;17.25;16.25;;;;;21.23;60.57;100441.13;5056224;27;45401;-51
2021/07/13 01:36:21;;;;;;;;;19.75;18.00;;;;;21.22;60.32;100444.78;5063526;27;47330;-50
2021/07/13 01:38:48;;;;;;;;;19.00;18.75;;;;;21.22;60.92;100458.28;5084550;27;45356;-52
2021/07/13 01:41:24;;;;;;;;;16.50;16.50;;;;;21.24;60.74;100467.13;5081564;27;45468;-51
2021/07/13 01:43:51;;;;;;;;;17.00;16.00;;;;;21.26;60.77;100462.50;5063933;27;45416;-49
2021/07/13 01:46:19;;;;;;;;;17.75;17.25;;;;;21.26;60.31;100465.22;5079805;27;45405;-52
2021/07/13 01:48:48;;;;;;;;;16.25;15.25;;;;;21.25;60.36;100476.09;5062561;28;45327;-52
2021/07/13 01:51:15;;;;;;;;;17.00;16.75;;;;;21.25;60.71;100490.47;5081773;27;45486;-49
2021/07/13 01:53:43;;;;;;;;;16.25;15.75;;;;;21.24;60.77;100494.13;5081672;27;45406;-52
2021/07/13 01:56:10;;;;;;;;;15.50;14.25;;;;;21.25;60.71;100490.47;5063265;28;47293;-51
2021/07/13 01:58:38;;;;;;;;;17.25;15.25;;;;;21.26;60.81;100485.94;5080968;27;45387;-50
2021/07/13 02:01:11;;;;;;;;;18.50;18.50;;;;;21.27;60.65;100472.34;5065050;28;45435;-47
2021/07/13 02:03:39;;;;;;;;;17.00;16.25;;;;;21.26;60.63;100473.31;5081820;27;45409;-48
2021/07/13 02:06:06;;;;;;;;;17.25;16.25;;;;;21.28;60.42;100478.59;5081336;27;47614;-51
2021/07/13 02:08:35;;;;;;;;;15.00;14.25;;;;;21.28;60.73;100484.84;5062987;28;45484;-52
2021/07/13 02:11:01;;;;;;;;;14.25;14.25;;;;;21.26;60.66;100481.41;5063305;28;45319;-48
2021/07/13 02:13:28;;;;;;;;;11.75;11.25;;;;;21.25;60.60;100482.38;5081941;27;45509;-49
2021/07/13 02:15:53;;;;;;;;;15.50;14.25;;;;;21.24;60.26;100477.91;5081411;27;48221;-51
2021/07/13 02:18:19;;;;;;;;;11.00;11.00;;;;;21.22;60.57;100470.91;5063158;27;45396;-52
2021/07/13 02:20:45;;;;;;;;;12.50;12.50;;;;;21.22;60.69;100470.91;5081311;27;45275;-47
2021/07/13 02:23:11;;;;;;;;;17.25;15.25;;;;;21.23;60.81;100484.28;5081188;27;45512;-51
2021/07/13 02:25:39;;;;;;;;;11.50;10.50;;;;;21.26;60.25;100470.59;5080969;27;47359;-49
2021/07/13 02:28:16;;;;;;;;;14.25;12.25;;;;;21.29;60.64;100470.38;5057447;28;45997;-47
2021/07/13 02:30:49;;;;;;;;;12.75;12.00;;;;;21.27;60.38;100464.25;5079180;27;45366;-49
2021/07/13 02:33:23;;;;;;;;;11.25;11.25;;;;;21.27;59.91;100463.38;5080968;27;45649;-49
2021/07/13 02:35:54;;;;;;;;;13.00;13.00;;;;;21.27;60.51;100469.63;5080932;27;47210;-50
2021/07/13 02:38:20;;;;;;;;;16.00;12.75;;;;;21.29;60.20;100478.50;5082343;27;45541;-49
2021/07/13 02:40:47;;;;;;;;;16.00;13.50;;;;;21.32;60.09;100486.34;5062418;28;45315;-50
2021/07/13 02:43:13;;;;;;;;;12.00;12.00;;;;;21.35;60.15;100482.59;5080736;27;45295;-49
2021/07/13 02:45:41;;;;;;;;;12.00;10.50;;;;;21.37;60.00;100481.53;5077785;27;46818;-50
2021/07/13 02:48:09;;;;;;;;;11.00;11.00;;;;;21.35;59.92;100469.97;5062559;28;45402;-48
2021/07/13 02:50:36;;;;;;;;;11.00;11.00;;;;;21.35;59.94;100469.13;5080797;27;45408;-49
2021/07/13 02:53:03;;;;;;;;;11.00;10.75;;;;;21.29;59.95;100465.00;5062778;28;45436;-48
2021/07/13 02:55:31;;;;;;;;;11.25;10.25;;;;;21.28;60.44;100457.88;5080395;27;46242;-51
2021/07/13 02:57:59;;;;;;;;;10.00;10.00;;;;;21.27;60.32;100463.38;5062421;28;45311;-50
2021/07/13 03:00:25;;;;;;;;;11.00;10.75;;;;;21.24;59.92;100471.66;5080614;27;45499;-49
2021/07/13 03:02:51;;;;;;;;;13.00;13.00;;;;;21.22;60.04;100476.31;5062417;28;45639;-48
2021/07/13 03:05:19;;;;;;;;;12.75;11.00;;;;;21.18;59.99;100475.63;5062235;28;46736;-52
2021/07/13 03:07:47;;;;;;;;;10.25;10.00;;;;;21.17;60.37;100471.22;5080738;27;45476;-52
2021/07/13 03:10:13;;;;;;;;;13.00;10.75;;;;;21.16;60.16;100473.03;5081159;27;45400;-48
2021/07/13 03:12:39;;;;;;;;;10.00;10.00;;;;;21.16;60.33;100473.03;5063074;28;45540;-50
2021/07/13 03:15:06;;;;;;;;;12.50;11.25;;;;;21.19;60.74;100481.91;5080411;27;45404;-50
2021/07/13 03:17:32;;;;;;;;;11.00;11.00;;;;;21.17;60.39;100484.69;5080784;27;45444;-52
2021/07/13 03:19:59;;;;;;;;;10.00;10.00;;;;;21.17;60.03;100485.56;5057040;27;45652;-50
2021/07/13 03:22:28;;;;;;;;;11.00;11.00;;;;;21.17;60.89;100487.41;5080654;27;45199;-51
2021/07/13 03:24:58;;;;;;;;;12.75;12.75;;;;;21.16;60.37;100480.28;5080198;27;47018;-48
2021/07/13 03:27:24;;;;;;;;;11.50;11.50;;;;;21.17;60.48;100472.06;5062701;28;45878;-49
2021/07/13 03:29:52;;;;;;;;;12.50;11.00;;;;;21.18;60.73;100464.84;5081403;27;45467;-49
2021/07/13 03:32:18;;;;;;;;;11.75;11.75;;;;;21.15;60.78;100459.66;5062033;27;45683;-52
2021/07/13 03:34:45;;;;;;;;;12.00;11.00;;;;;21.14;60.91;100448.00;5079802;27;47310;-49
2021/07/13 03:37:12;;;;;;;;;14.00;14.00;;;;;21.15;61.01;100446.16;5062208;28;45468;-50
2021/07/13 03:39:38;;;;;;;;;11.25;11.25;;;;;21.14;60.87;100457.94;5064373;27;45652;-49
2021/07/13 03:42:04;;;;;;;;;14.00;13.75;;;;;21.12;60.47;100458.06;5062394;28;45272;-50
2021/07/13 03:44:30;;;;;;;;;13.50;13.50;;;;;21.10;61.11;100454.59;5082314;27;47064;-51
2021/07/13 03:46:56;;;;;;;;;11.25;10.50;;;;;21.12;60.80;100451.78;5075907;27;45437;-51
2021/07/13 03:49:24;;;;;;;;;12.75;12.75;;;;;21.14;60.56;100452.53;5061338;27;45414;-49
2021/07/13 03:51:50;;;;;;;;;11.00;11.00;;;;;21.10;60.41;100454.59;5062027;27;45395;-50
2021/07/13 03:54:18;;;;;;;;;16.25;11.25;;;;;21.13;60.67;100462.47;5078505;27;48277;-51
2021/07/13 03:56:46;;;;;;;;;13.00;13.00;;;;;21.13;61.24;100459.78;5080387;27;46024;-50
2021/07/13 03:59:11;;;;;;;;;13.25;12.75;;;;;21.12;60.96;100458.06;5080006;27;45335;-48
2021/07/13 04:01:37;;;;;;;;;11.00;9.67;;;;;21.12;61.18;100460.75;5072658;27;45365;-49
2021/07/13 04:04:03;;;;;;;;;13.00;12.25;;;;;21.12;61.16;100462.59;5079726;27;47890;-51
2021/07/13 04:06:29;;;;;;;;;11.75;11.00;;;;;21.10;61.15;100456.44;5061673;27;45618;-48
2021/07/13 04:08:55;;;;;;;;;11.50;11.50;;;;;21.10;60.74;100454.59;5079708;27;45416;-50
2021/07/13 04:11:20;;;;;;;;;13.25;13.25;;;;;21.10;60.75;100461.84;5061393;28;45362;-49
2021/07/13 04:13:46;;;;;;;;;11.50;11.50;;;;;21.09;60.80;100465.50;5079464;27;45716;-50
2021/07/13 04:16:11;;;;;;;;;15.25;15.25;;;;;21.08;61.33;100455.66;5061054;27;45636;-51
2021/07/13 04:18:37;;;;;;;;;16.00;15.25;;;;;21.08;61.15;100461.91;5079062;27;45468;-51
2021/07/13 04:21:03;;;;;;;;;11.00;11.00;;;;;21.09;61.06;100462.81;5079561;27;45310;-49
2021/07/13 04:23:29;;;;;;;;;9.75;9.75;;;;;21.11;61.29;100455.47;5079042;27;48145;-46
2021/07/13 04:25:54;;;;;;;;;14.00;13.00;;;;;21.12;61.17;100458.06;5079100;27;45496;-50
2021/07/13 04:28:20;;;;;;;;;14.75;14.75;;;;;21.12;61.40;100449.97;5061176;27;45263;-48
2021/07/13 04:30:45;;;;;;;;;13.33;12.33;;;;;21.10;60.93;100451.91;5077987;27;45275;-51
2021/07/13 04:33:11;;;;;;;;;12.00;12.00;;;;;21.12;61.00;100457.19;5079064;27;47259;-51
2021/07/13 04:35:38;;;;;;;;;16.67;16.00;;;;;21.11;61.00;100460.84;5060884;27;45953;-50
2021/07/13 04:38:03;;;;;;;;;15.50;13.00;;;;;21.09;61.50;100468.19;5079617;27;45430;-52
2021/07/13 04:40:29;;;;;;;;;15.00;15.00;;;;;21.08;61.40;100469.13;5061089;28;45458;-50
2021/07/13 04:42:54;;;;;;;;;12.00;12.00;;;;;21.08;61.53;100463.75;5078391;27;48310;-47
2021/07/13 04:45:20;;;;;;;;;15.00;14.00;;;;;21.07;61.54;100468.28;5077259;27;45712;-52
2021/07/13 04:47:45;;;;;;;;;17.00;17.00;;;;;21.09;61.49;100468.19;5078694;27;45539;-49
2021/07/13 04:50:11;;;;;;;;;15.50;15.25;;;;;21.06;61.22;100458.47;5075105;27;45418;-48
2021/07/13 04:52:37;;;;;;;;;16.00;15.50;;;;;21.05;61.12;100459.44;5078435;27;47432;-47
2021/07/13 04:55:04;;;;;;;;;16.75;15.25;;;;;21.02;61.33;100450.69;5060533;28;46095;-49
2021/07/13 04:57:29;;;;;;;;;17.50;15.75;;;;;21.01;61.29;100457.94;5078918;28;45305;-49
2021/07/13 04:59:55;;;;;;;;;16.00;13.75;;;;;20.97;60.95;100459.13;5079293;27;45753;-48
2021/07/13 05:02:21;;;;;;;;;19.75;16.50;;;;;20.96;61.68;100454.69;5059785;28;47692;-49
2021/07/13 05:04:47;;;;;;;;;14.75;14.75;;;;;20.97;61.77;100459.13;5056544;28;45311;-51
2021/07/13 05:07:13;;;;;;;;;12.00;12.00;;;;;20.98;61.37;100458.16;5057061;28;45363;-46
2021/07/13 05:09:38;;;;;;;;;15.33;14.33;;;;;20.99;61.39;100461.72;5040894;28;45529;-51
2021/07/13 05:12:05;;;;;;;;;12.67;12.33;;;;;21.01;61.35;100465.16;5058724;28;46797;-48
2021/07/13 05:14:31;;;;;;;;;18.00;16.33;;;;;21.03;61.65;100464.06;5040417;28;45380;-48
2021/07/13 05:16:56;;;;;;;;;17.25;17.25;;;;;21.06;61.64;100468.38;5058700;28;45696;-50
2021/07/13 05:19:22;;;;;;;;;18.75;17.25;;;;;21.05;61.61;100467.53;5058716;28;45410;-51
2021/07/13 05:21:56;;;;;;;;;18.25;17.00;;;;;21.05;61.56;100472.94;5057058;28;47500;-52
2021/07/13 05:24:22;;;;;;;;;18.75;17.00;;;;;21.05;61.30;100472.94;5058081;28;45340;-52
2021/07/13 05:26:48;;;;;;;;;18.50;17.00;;;;;21.03;61.71;100479.41;5058163;28;45431;-50
2021/07/13 05:29:14;;;;;;;;;16.75;14.75;;;;;21.04;61.88;100482.00;5040430;28;45606;-51
2021/07/13 05:31:39;;;;;;;;;18.50;18.50;;;;;21.06;61.69;100489.97;5059110;28;47336;-53
2021/07/13 05:34:05;;;;;;;;;16.25;16.25;;;;;21.08;62.08;100490.72;5036437;28;45339;-53
2021/07/13 05:36:30;;;;;;;;;14.50;13.75;;;;;21.10;61.86;100492.38;5058445;28;45224;-53
2021/07/13 05:38:56;;;;;;;;;19.00;19.00;;;;;21.10;61.40;100492.38;5071148;28;45399;-51
2021/07/13 05:41:22;;;;;;;;;16.50;14.50;;;;;21.11;61.80;100499.50;5077666;28;48138;-50
2021/07/13 05:43:49;;;;;;;;;16.75;15.00;;;;;21.12;61.64;100503.06;5078134;28;45319;-49
2021/07/13 05:46:15;;;;;;;;;16.25;14.25;;;;;21.15;61.22;100506.41;5059502;28;45446;-48
2021/07/13 05:48:40;;;;;;;;;19.75;19.75;;;;;21.14;61.90;100498.41;5072133;27;45353;-48
2021/07/13 05:51:06;;;;;;;;;18.25;16.00;;;;;21.14;61.55;100501.97;5056758;28;46933;-52
2021/07/13 05:53:33;;;;;;;;;14.00;14.00;;;;;21.15;61.99;100501.00;5077307;27;45520;-51
2021/07/13 05:55:58;;;;;;;;;17.25;16.25;;;;;21.18;61.83;100494.53;5078697;27;45349;-52
2021/07/13 05:58:24;;;;;;;;;18.25;17.75;;;;;21.21;61.70;100498.84;5078433;27;45615;-51
2021/07/13 06:00:51;;;;;;;;;18.75;17.25;;;;;21.21;61.28;100497.00;5077811;27;45365;-49
2021/07/13 06:03:16;;;;;;;;;16.50;14.25;;;;;21.22;61.45;100497.91;5078298;28;45411;-50
2021/07/13 06:05:42;;;;;;;;;17.00;16.25;;;;;21.26;61.42;100500.31;5060086;28;45488;-48
2021/07/13 06:08:07;;;;;;;;;16.50;15.50;;;;;21.29;61.40;100505.47;5078231;27;45489;-52
2021/07/13 06:10:33;;;;;;;;;17.75;16.50;;;;;21.30;61.30;100495.53;5077901;27;47670;-54
2021/07/13 06:12:58;;;;;;;;;14.00;13.50;;;;;21.31;61.42;100489.16;5077665;27;45306;-52
2021/07/13 06:15:24;;;;;;;;;17.25;16.75;;;;;21.32;61.63;100490.91;5077504;27;45306;-51
2021/07/13 06:17:49;;;;;;;;;16.00;15.50;;;;;21.32;61.51;100491.75;5080335;27;45389;-51
2021/07/13 06:20:15;;;;;;;;;15.25;15.25;;;;;21.34;61.50;100487.16;5063196;27;47479;-48
2021/07/13 06:22:41;;;;;;;;;17.75;17.25;;;;;21.35;61.36;100486.16;5063076;28;45492;-49
2021/07/13 06:25:08;;;;;;;;;17.75;17.50;;;;;21.38;61.32;100496.75;5063288;27;45590;-49
2021/07/13 06:27:34;;;;;;;;;15.25;15.00;;;;;21.41;61.23;100495.66;5053101;28;45596;-53
2021/07/13 06:30:00;;;;;;;;;20.75;18.00;;;;;21.42;61.17;100494.69;5081059;27;45439;-51
2021/07/13 06:32:26;;;;;;;;;14.75;14.75;;;;;21.45;61.66;100497.16;5079390;27;45477;-51
2021/07/13 06:34:52;;;;;;;;;20.50;20.00;;;;;21.43;61.68;100501.81;5081571;27;45259;-50
2021/07/13 06:37:17;;;;;;;;;19.25;18.25;;;;;21.44;61.71;100507.09;5084251;27;45519;-49
2021/07/13 06:39:43;;;;;;;;;18.25;17.50;;;;;21.46;61.32;100498.88;5081709;27;47061;-50
2021/07/13 06:42:08;;;;;;;;;23.50;20.25;;;;;21.48;61.54;100494.28;5063417;27;45850;-50
2021/07/13 06:44:33;;;;;;;;;21.25;18.75;;;;;21.51;61.46;100493.19;5066543;27;45628;-47
2021/07/13 06:46:59;;;;;;;;;20.75;16.25;;;;;21.57;61.40;100487.34;5077609;27;45450;-47
2021/07/13 06:49:25;;;;;;;;;20.25;17.50;;;;;21.61;61.72;100478.94;5081070;27;45455;-48
2021/07/13 06:51:50;;;;;;;;;27.00;20.50;;;;;21.67;61.35;100480.31;5081087;27;45365;-52
2021/07/13 06:54:15;;;;;;;;;23.00;19.00;;;;;21.72;61.80;100484.44;5081223;27;45539;-49
2021/07/13 06:56:41;;;;;;;;;20.00;20.00;;;;;21.77;61.42;100469.72;5081511;27;45744;-49
2021/07/13 06:59:06;;;;;;;;;19.50;19.25;;;;;21.82;62.05;100470.22;5081506;27;47589;-48
2021/07/13 07:01:32;;;;;;;;;19.50;17.25;;;;;21.87;61.20;100468.94;5081026;27;45376;-53
2021/07/13 07:03:57;;;;;;;;;20.50;19.75;;;;;21.92;61.27;100468.59;5063017;27;45545;-50
2021/07/13 07:06:23;;;;;;;;;21.50;20.50;;;;;21.97;61.10;100469.97;5081968;27;45279;-51
2021/07/13 07:08:48;;;;;;;;;21.25;20.50;;;;;22.01;61.20;100470.63;5080702;27;46523;-51
2021/07/13 07:11:14;;;;;;;;;18.00;16.25;;;;;22.05;61.04;100474.84;5081445;27;45369;-48
2021/07/13 07:13:40;;;;;;;;;29.50;25.25;;;;;22.12;60.73;100470.75;5063157;27;45553;-48
2021/07/13 07:16:06;;;;;;;;;23.75;22.75;;;;;22.15;60.82;100469.66;5080742;27;45425;-49
2021/07/13 07:18:32;;;;;;;;;19.50;18.50;;;;;22.15;60.65;100462.41;5080589;27;47056;-49
2021/07/13 07:20:57;;;;;;;;;19.50;19.50;;;;;22.16;60.61;100463.28;5062248;27;45406;-48
2021/07/13 07:23:23;;;;;;;;;18.25;17.00;;;;;22.17;60.60;100451.47;5080798;27;45472;-51
2021/07/13 07:25:48;;;;;;;;;20.00;20.00;;;;;22.18;60.64;100451.38;5062712;28;45355;-48
2021/07/13 07:28:14;;;;;;;;;18.75;18.75;;;;;22.18;60.66;100462.19;5079566;27;48322;-50
2021/07/13 07:30:39;;;;;;;;;22.50;21.00;;;;;22.21;60.73;100471.88;5078862;27;45354;-50
2021/07/13 07:33:06;;;;;;;;;24.50;23.00;;;;;22.23;60.33;100480.75;5080874;27;45439;-51
2021/07/13 07:35:32;;;;;;;;;19.75;18.75;;;;;22.24;60.27;100475.25;5062399;27;45791;-52
2021/07/13 07:37:58;;;;;;;;;24.50;22.00;;;;;22.27;60.69;100472.31;5081571;27;47450;-49
2021/07/13 07:40:24;;;;;;;;;20.75;20.00;;;;;22.30;60.19;100474.78;5080261;27;45458;-51
2021/07/13 07:42:52;;;;;;;;;21.75;20.00;;;;;22.32;60.28;100496.28;5080172;27;45260;-50
2021/07/13 07:45:19;;;;;;;;;23.25;21.50;;;;;22.30;59.85;100493.72;5061101;28;45341;-51
2021/07/13 07:47:46;;;;;;;;;21.75;20.25;;;;;22.27;59.93;100493.94;5080313;27;47204;-51
2021/07/13 07:50:12;;;;;;;;;23.50;21.50;;;;;22.25;60.13;100487.78;5080331;27;45411;-48
2021/07/13 07:52:39;;;;;;;;;24.50;22.00;;;;;22.23;60.29;100494.25;5079969;27;45339;-52
2021/07/13 07:55:07;;;;;;;;;23.00;22.00;;;;;22.21;60.49;100490.81;5080610;27;45396;-49
2021/07/13 07:57:32;;;;;;;;;23.50;22.50;;;;;22.19;60.10;100503.59;5080427;27;48492;-48
2021/07/13 07:59:58;;;;;;;;;15.50;15.00;;;;;22.17;60.56;100501.00;5079749;27;45338;-48
2021/07/13 08:02:24;;;;;;;;;19.00;17.00;;;;;22.15;60.57;100507.50;5079726;27;45487;-52
2021/07/13 08:04:49;;;;;;;;;18.50;18.00;;;;;22.15;60.57;100502.94;5062001;28;45338;-52
2021/07/13 08:07:15;;;;;;;;;17.00;15.50;;;;;22.11;60.26;100514.97;5061734;28;47220;-51
2021/07/13 08:09:40;;;;;;;;;19.67;17.00;;;;;22.06;60.51;100500.91;5079659;27;45395;-49
2021/07/13 08:12:06;;;;;;;;;18.25;16.50;;;;;22.06;60.72;100503.63;5079942;27;45376;-47
2021/07/13 08:14:32;;;;;;;;;14.75;14.75;;;;;22.06;60.97;100506.31;5061656;28;45450;-50
2021/07/13 08:16:57;;;;;;;;;20.00;18.75;;;;;22.05;61.05;100501.84;5060926;28;46954;-49
2021/07/13 08:19:23;;;;;;;;;13.25;13.25;;;;;22.04;60.77;100508.25;5079975;27;46064;-50
2021/07/13 08:21:50;;;;;;;;;13.75;12.75;;;;;22.05;60.69;100509.97;5080582;27;45875;-53
2021/07/13 08:24:16;;;;;;;;;12.75;11.50;;;;;22.07;60.99;100513.44;5079829;27;45305;-51
2021/07/13 08:26:41;;;;;;;;;12.50;12.50;;;;;22.07;61.09;100521.56;5079202;27;48076;-53
2021/07/13 08:29:07;;;;;;;;;16.00;15.75;;;;;22.07;60.49;100518.00;5079835;28;45518;-49
2021/07/13 08:31:32;;;;;;;;;12.75;12.00;;;;;22.04;60.73;100510.94;5078473;27;45503;-47
2021/07/13 08:33:58;;;;;;;;;17.00;14.50;;;;;22.00;61.08;100513.00;5082209;27;45552;-48
2021/07/13 08:36:23;;;;;;;;;12.00;12.00;;;;;21.99;61.21;100505.88;5081431;27;47937;-49
2021/07/13 08:38:49;;;;;;;;;16.50;16.25;;;;;22.00;61.13;100513.00;5079427;27;45309;-49
2021/07/13 08:41:19;;;;;;;;;15.50;14.75;;;;;22.01;60.94;100508.47;5071057;27;45865;-51
2021/07/13 08:43:45;;;;;;;;;14.75;14.25;;;;;22.01;61.18;100512.03;5080622;27;45236;-48
2021/07/13 08:46:11;;;;;;;;;15.50;13.25;;;;;22.02;61.05;100504.78;5077561;27;47221;-48
2021/07/13 08:48:40;;;;;;;;;15.25;14.25;;;;;22.03;61.18;100509.22;5060257;27;45516;-47
2021/07/13 08:51:06;;;;;;;;;19.00;15.50;;;;;22.01;61.51;100511.16;5079571;27;45397;-51
2021/07/13 08:53:32;;;;;;;;;14.75;13.75;;;;;22.00;61.87;100512.16;5079648;27;45502;-49
2021/07/13 08:55:58;;;;;;;;;17.25;16.50;;;;;21.99;61.60;100503.19;5079340;27;45776;-50
2021/07/13 08:58:25;;;;;;;;;20.25;17.50;;;;;22.00;61.88;100504.03;5061405;28;45445;-48
2021/07/13 09:00:52;;;;;;;;;16.25;14.75;;;;;22.03;62.16;100504.69;5078627;27;45225;-51
2021/07/13 09:03:20;;;;;;;;;16.25;14.75;;;;;22.06;62.00;100502.75;5061028;28;45326;-50
2021/07/13 09:05:57;;;;;;;;;13.75;13.25;;;;;22.07;61.79;100513.44;5060527;28;47011;-49
2021/07/13 09:08:28;;;;;;;;;13.00;12.75;;;;;22.05;61.47;100509.97;5060844;28;45327;-50
2021/07/13 09:11:14;;;;;;;;;15.00;15.00;;;;;22.03;62.01;100518.19;5078763;27;45286;-50
2021/07/13 09:13:43;;;;;;;;;14.00;13.50;;;;;22.03;62.01;100520.03;5075060;27;45576;-46
2021/07/13 09:16:14;;;;;;;;;16.50;13.50;;;;;22.04;62.00;100525.31;5086000;27;48028;-51
2021/07/13 09:18:42;;;;;;;;;17.50;15.25;;;;;22.07;61.76;100529.66;5078594;27;45726;-52
2021/07/13 09:21:17;;;;;;;;;16.75;15.75;;;;;22.09;62.21;100524.13;5060774;28;45785;-52
2021/07/13 09:24:07;;;;;;;;;16.00;15.75;;;;;22.10;62.01;100528.56;5060747;28;45458;-48
2021/07/13 09:26:38;;;;;;;;;19.25;19.25;;;;;22.13;62.26;100539.19;5056032;28;47906;-49
2021/07/13 09:29:05;;;;;;;;;15.25;15.00;;;;;22.13;62.40;100536.47;5078733;27;45934;-52
2021/07/13 09:31:31;;;;;;;;;18.50;17.00;;;;;22.11;62.10;100539.31;5078025;27;45858;-50
2021/07/13 09:33:57;;;;;;;;;14.67;13.33;;;;;22.08;62.09;100530.53;5061114;27;45508;-48
2021/07/13 09:36:23;;;;;;;;;17.00;16.75;;;;;22.04;62.59;100533.44;5080182;27;47171;-49
2021/07/13 09:38:54;;;;;;;;;14.50;12.75;;;;;22.03;62.10;100538.94;5060014;27;45738;-48
2021/07/13 09:41:23;;;;;;;;;16.50;16.50;;;;;22.04;62.73;100533.44;5078566;27;45326;-50
2021/07/13 09:44:10;;;;;;;;;19.25;17.75;;;;;22.06;63.42;100538.75;5079307;27;45788;-47
2021/07/13 09:46:39;;;;;;;;;16.75;14.00;;;;;22.05;63.38;100542.41;5073988;27;46121;-53
2021/07/13 09:49:06;;;;;;;;;18.25;17.00;;;;;22.05;62.77;100542.41;5078852;28;45477;-48
2021/07/13 09:51:31;;;;;;;;;18.00;18.00;;;;;22.03;63.72;100547.06;5079945;27;45287;-50
2021/07/13 09:53:57;;;;;;;;;15.75;15.50;;;;;22.02;63.62;100548.03;5082037;27;45615;-51
2021/07/13 09:56:44;;;;;;;;;16.00;16.00;;;;;22.01;63.82;100549.88;5064491;28;48117;-51
2021/07/13 09:59:10;;;;;;;;;19.50;17.50;;;;;22.03;63.67;100552.44;5061649;28;45547;-49
2021/07/13 10:01:36;;;;;;;;;18.50;17.25;;;;;22.04;63.80;100552.34;5081486;27;45368;-51
2021/07/13 10:04:02;;;;;;;;;18.25;17.75;;;;;22.04;64.14;100560.44;5063788;27;45401;-49
2021/07/13 10:06:30;;;;;;;;;20.50;20.50;;;;;22.05;64.49;100553.19;5081774;27;47661;-50
2021/07/13 10:08:58;;;;;;;;;24.75;17.50;;;;;22.07;63.95;100553.13;5081577;27;45301;-51
2021/07/13 10:11:26;;;;;;;;;14.75;14.75;;;;;22.10;63.76;100552.91;5081955;27;45387;-51
2021/07/13 10:13:52;;;;;;;;;12.50;12.50;;;;;22.13;63.87;100548.16;5081808;27;45352;-49
2021/07/13 10:16:18;;;;;;;;;17.00;15.50;;;;;22.18;63.81;100548.66;5081191;27;46278;-48
2021/07/13 10:18:44;;;;;;;;;17.00;15.75;;;;;22.17;63.48;100552.34;5081475;27;45365;-49
2021/07/13 10:21:12;;;;;;;;;16.50;15.25;;;;;22.19;63.74;100555.81;5062954;28;45790;-51
2021/07/13 10:23:37;;;;;;;;;14.25;13.50;;;;;22.19;63.87;100554.94;5063333;28;45727;-52
2021/07/13 10:26:06;;;;;;;;;16.25;16.25;;;;;22.20;64.17;100551.25;5063074;27;45473;-51
2021/07/13 10:28:33;;;;;;;;;17.00;16.00;;;;;22.22;64.18;100560.97;5081434;27;45586;-50
2021/07/13 10:30:59;;;;;;;;;14.50;13.50;;;;;22.27;64.20;100557.97;5079474;27;45353;-52
2021/07/13 10:33:32;;;;;;;;;20.00;17.00;;;;;22.30;63.86;100555.03;5081405;27;45499;-49
2021/07/13 10:36:31;;;;;;;;;17.50;17.25;;;;;22.32;64.37;100558.47;5082377;27;48190;-50
2021/07/13 10:39:28;;;;;;;;;21.50;20.00;;;;;22.32;63.79;100562.03;5070414;27;45444;-51
2021/07/13 10:41:55;;;;;;;;;19.75;17.50;;;;;22.34;63.96;100564.63;5081278;27;45592;-53
2021/07/13 10:44:44;;;;;;;;;19.00;18.75;;;;;22.35;64.01;100562.78;5083064;27;45397;-49
2021/07/13 10:47:32;;;;;;;;;17.00;15.75;;;;;22.37;64.35;100561.72;5055996;28;47021;-50
2021/07/13 10:50:15;;;;;;;;;18.75;17.00;;;;;22.40;64.03;100555.22;5073798;27;45853;-48
2021/07/13 10:52:52;;;;;;;;;21.00;19.50;;;;;22.42;63.88;100546.00;5079152;27;45407;-51
2021/07/13 10:55:29;;;;;;;;;22.25;22.25;;;;;22.50;64.31;100540.06;5081322;27;45376;-50
2021/07/13 10:58:10;;;;;;;;;18.75;18.75;;;;;22.55;64.51;100559.50;5080702;27;48471;-50
2021/07/13 11:00:51;;;;;;;;;20.00;18.50;;;;;22.58;64.36;100552.00;5077844;27;45429;-49
2021/07/13 11:03:28;;;;;;;;;21.00;20.25;;;;;22.60;64.02;100546.47;5080686;27;45385;-49
2021/07/13 11:06:04;;;;;;;;;23.50;20.00;;;;;22.62;64.46;100547.25;5083984;27;45402;-51
2021/07/13 11:08:44;;;;;;;;;17.00;17.00;;;;;22.62;64.10;100552.66;5062414;28;47311;-51
2021/07/13 11:11:16;;;;;;;;;21.75;21.75;;;;;22.64;64.47;100544.44;5080851;27;45762;-50
2021/07/13 11:13:46;;;;;;;;;20.50;19.75;;;;;22.66;64.24;100545.19;5080539;27;45418;-51